createdAt,value
2022-08-17T00:00:03.259Z,999.93
2022-08-17T00:00:43.215Z,999.73
2022-08-17T00:00:52.322Z,999.73
2022-08-17T00:01:27.195Z,999.73
2022-08-17T00:01:51.398Z,999.83
2022-08-17T00:02:22.401Z,999.83
2022-08-17T00:02:35.989Z,999.93
2022-08-17T00:02:59.087Z,999.93
2022-08-17T00:03:31.644Z,999.93
2022-08-17T00:04:02.929Z,999.73
2022-08-17T00:04:34.030Z,999.83
2022-08-17T00:04:52.102Z,999.83
2022-08-17T00:05:23.109Z,999.83
2022-08-17T00:05:40.107Z,999.93
2022-08-17T00:06:11.816Z,999.93
2022-08-17T00:06:34.133Z,999.93
2022-08-17T00:06:59.669Z,999.93
2022-08-17T00:07:33.144Z,999.93
2022-08-17T00:08:02.956Z,999.63
2022-08-17T00:08:35.444Z,999.73
2022-08-17T00:09:06.910Z,999.73
2022-08-17T00:09:34.045Z,999.83
2022-08-17T00:09:54.966Z,999.83
2022-08-17T00:10:27.766Z,999.83
2022-08-17T00:10:58.903Z,999.63
2022-08-17T00:11:31.660Z,999.63
2022-08-17T00:12:42.248Z,999.63
2022-08-17T00:13:07.078Z,999.63
2022-08-17T00:13:34.134Z,999.83
2022-08-17T00:13:56.355Z,999.83
2022-08-17T00:14:27.071Z,999.83
2022-08-17T00:14:59.583Z,999.52
2022-08-17T00:15:31.063Z,999.52
2022-08-17T00:16:02.880Z,999.83
2022-08-17T00:16:55.598Z,999.42
2022-08-17T00:17:08.229Z,999.42
2022-08-17T00:17:35.167Z,999.52
2022-08-17T00:17:55.712Z,999.52
2022-08-17T00:18:57.454Z,999.52
2022-08-17T00:19:15.015Z,999.73
2022-08-17T00:19:34.154Z,999.52
2022-08-17T00:20:03.066Z,999.52
2022-08-17T00:20:34.996Z,999.52
2022-08-17T00:21:10.215Z,999.52
2022-08-17T00:21:36.115Z,999.73
2022-08-17T00:22:45.446Z,999.52
2022-08-17T00:23:14.976Z,999.52
2022-08-17T00:23:34.080Z,999.63
2022-08-17T00:24:02.966Z,999.63
2022-08-17T00:24:34.134Z,999.42
2022-08-17T00:24:50.940Z,999.42
2022-08-17T00:25:23.950Z,999.42
2022-08-17T00:25:40.932Z,999.42
2022-08-17T00:26:14.218Z,999.42
2022-08-17T00:26:44.760Z,999.63
2022-08-17T00:26:59.584Z,999.63
2022-08-17T00:27:30.935Z,999.63
2022-08-17T00:28:02.903Z,999.52
2022-08-17T00:28:34.106Z,999.32
2022-08-17T00:28:51.610Z,999.32
2022-08-17T00:29:23.574Z,999.32
2022-08-17T00:29:40.675Z,999.42
2022-08-17T00:30:11.227Z,999.42
2022-08-17T00:30:50.970Z,999.42
2022-08-17T00:30:59.721Z,999.42
2022-08-17T00:31:31.028Z,999.42
2022-08-17T00:33:14.246Z,999.42
2022-08-17T00:33:23.629Z,999.32
2022-08-17T00:33:40.137Z,999.22
2022-08-17T00:34:13.070Z,999.22
2022-08-17T00:34:34.038Z,999.32
2022-08-17T00:34:58.956Z,999.32
2022-08-17T00:35:32.103Z,999.32
2022-08-17T00:36:02.991Z,999.63
2022-08-17T00:36:35.726Z,999.32
2022-08-17T00:37:06.947Z,999.32
2022-08-17T00:37:35.555Z,999.52
2022-08-17T00:37:55.558Z,999.52
2022-08-17T00:38:27.574Z,999.52
2022-08-17T00:38:58.998Z,999.42
2022-08-17T00:39:31.793Z,999.42
2022-08-17T00:40:03.312Z,999.63
2022-08-17T00:40:40.728Z,999.22
2022-08-17T00:40:51.955Z,999.22
2022-08-17T00:41:23.903Z,999.22
2022-08-17T00:41:42.289Z,999.52
2022-08-17T00:42:10.905Z,999.52
2022-08-17T00:42:34.325Z,999.42
2022-08-17T00:42:59.038Z,999.42
2022-08-17T00:43:30.904Z,999.42
2022-08-17T00:44:02.896Z,999.42
2022-08-17T00:44:34.064Z,999.52
2022-08-17T00:44:51.448Z,999.52
2022-08-17T00:45:23.839Z,999.52
2022-08-17T00:45:40.780Z,999.52
2022-08-17T00:46:10.978Z,999.52
2022-08-17T00:46:34.116Z,999.22
2022-08-17T00:46:59.600Z,999.22
2022-08-17T00:47:32.207Z,999.22
2022-08-17T00:48:04.613Z,999.22
2022-08-17T00:48:34.062Z,999.52
2022-08-17T00:48:50.937Z,999.52
2022-08-17T00:49:22.968Z,999.52
2022-08-17T00:49:40.056Z,999.52
2022-08-17T00:50:11.805Z,999.52
2022-08-17T00:50:34.062Z,999.32
2022-08-17T00:50:59.058Z,999.32
2022-08-17T00:51:31.465Z,999.32
2022-08-17T00:52:02.937Z,999.12
2022-08-17T00:52:34.939Z,999.52
2022-08-17T00:53:06.951Z,999.52
2022-08-17T00:53:34.039Z,999.63
2022-08-17T00:53:55.440Z,999.63
2022-08-17T00:54:26.992Z,999.63
2022-08-17T00:54:58.861Z,999.32
2022-08-17T00:55:30.959Z,999.32
2022-08-17T00:56:02.950Z,999.22
2022-08-17T00:56:34.242Z,999.22
2022-08-17T00:56:51.541Z,999.22
2022-08-17T00:57:24.725Z,999.22
2022-08-17T00:57:41.846Z,999.12
2022-08-17T00:58:10.950Z,999.12
2022-08-17T00:58:36.615Z,999.22
2022-08-17T00:58:59.782Z,999.22
2022-08-17T00:59:31.739Z,999.22
2022-08-17T01:00:03.741Z,999.52
2022-08-17T01:00:34.040Z,999.42
2022-08-17T01:00:51.185Z,999.42
2022-08-17T01:01:23.649Z,999.42
2022-08-17T01:01:40.996Z,999.32
2022-08-17T01:02:10.897Z,999.32
2022-08-17T01:02:41.190Z,999.12
2022-08-17T01:02:59.543Z,999.12
2022-08-17T01:03:31.088Z,999.12
2022-08-17T01:04:02.853Z,999.42
2022-08-17T01:04:34.021Z,999.52
2022-08-17T01:04:50.977Z,999.52
2022-08-17T01:05:23.670Z,999.52
2022-08-17T01:05:42.288Z,999.42
2022-08-17T01:06:10.881Z,999.42
2022-08-17T01:06:35.471Z,999.32
2022-08-17T01:06:58.927Z,999.32
2022-08-17T01:07:31.611Z,999.32
2022-08-17T01:08:03.197Z,999.42
2022-08-17T01:08:36.375Z,999.42
2022-08-17T01:09:06.881Z,999.42
2022-08-17T01:09:35.734Z,999.52
2022-08-17T01:09:55.604Z,999.52
2022-08-17T01:11:00.475Z,999.52
2022-08-17T01:11:14.873Z,999.52
2022-08-17T01:11:34.025Z,999.32
2022-08-17T01:12:03.630Z,999.32
2022-08-17T01:12:34.104Z,999.63
2022-08-17T01:12:51.245Z,999.63
2022-08-17T01:13:23.525Z,999.63
2022-08-17T01:13:41.737Z,999.42
2022-08-17T01:14:10.854Z,999.42
2022-08-17T01:14:34.181Z,999.32
2022-08-17T01:14:58.957Z,999.32
2022-08-17T01:15:31.182Z,999.32
2022-08-17T01:16:02.823Z,999.32
2022-08-17T01:16:34.044Z,999.12
2022-08-17T01:17:06.290Z,999.12
2022-08-17T01:17:23.427Z,999.12
2022-08-17T01:17:40.586Z,999.22
2022-08-17T01:18:10.927Z,999.22
2022-08-17T01:18:35.182Z,999.63
2022-08-17T01:18:58.906Z,999.63
2022-08-17T01:19:30.987Z,999.63
2022-08-17T01:20:03.103Z,999.02
2022-08-17T01:20:48.240Z,999.42
2022-08-17T01:21:06.849Z,999.42
2022-08-17T01:21:34.092Z,999.12
2022-08-17T01:21:56.195Z,999.12
2022-08-17T01:22:26.958Z,999.12
2022-08-17T01:22:58.906Z,999.32
2022-08-17T01:23:30.850Z,999.32
2022-08-17T01:24:02.984Z,999.12
2022-08-17T01:24:34.175Z,999.12
2022-08-17T01:25:06.508Z,999.12
2022-08-17T01:25:23.575Z,999.12
2022-08-17T01:25:40.803Z,999.12
2022-08-17T01:26:10.949Z,999.12
2022-08-17T01:26:34.541Z,999.32
2022-08-17T01:26:58.958Z,999.32
2022-08-17T01:27:31.591Z,999.32
2022-08-17T01:28:02.866Z,999.02
2022-08-17T01:28:54.416Z,999.12
2022-08-17T01:29:06.923Z,999.12
2022-08-17T01:29:34.021Z,999.32
2022-08-17T01:29:55.566Z,999.32
2022-08-17T01:30:58.639Z,999.32
2022-08-17T01:31:14.961Z,999.22
2022-08-17T01:31:35.511Z,999.22
2022-08-17T01:32:03.523Z,999.22
2022-08-17T01:32:35.078Z,999.32
2022-08-17T01:33:08.566Z,999.32
2022-08-17T01:33:34.043Z,999.32
2022-08-17T01:33:54.969Z,999.32
2022-08-17T01:34:28.206Z,999.32
2022-08-17T01:34:58.837Z,999.22
2022-08-17T01:35:31.109Z,999.22
2022-08-17T01:36:02.899Z,999.22
2022-08-17T01:36:34.122Z,999.12
2022-08-17T01:36:51.002Z,999.12
2022-08-17T01:37:24.488Z,999.12
2022-08-17T01:37:41.558Z,999.32
2022-08-17T01:38:11.937Z,999.32
2022-08-17T01:38:36.543Z,999.12
2022-08-17T01:38:58.865Z,999.12
2022-08-17T01:39:30.885Z,999.12
2022-08-17T01:40:03.075Z,999.22
2022-08-17T01:40:36.037Z,999.12
2022-08-17T01:41:06.972Z,999.12
2022-08-17T01:41:34.127Z,999.22
2022-08-17T01:41:54.856Z,999.22
2022-08-17T01:42:27.650Z,999.22
2022-08-17T01:42:59.058Z,999.22
2022-08-17T01:43:31.545Z,999.22
2022-08-17T01:44:02.893Z,999.42
2022-08-17T01:44:34.915Z,999.42
2022-08-17T01:45:08.022Z,999.42
2022-08-17T01:45:35.071Z,999.32
2022-08-17T01:46:03.024Z,999.32
2022-08-17T01:46:26.870Z,999.32
2022-08-17T01:46:59.803Z,999.32
2022-08-17T01:47:31.083Z,999.32
2022-08-17T01:48:03.517Z,999.52
2022-08-17T01:48:34.867Z,999.42
2022-08-17T01:49:06.892Z,999.42
2022-08-17T01:49:34.084Z,999.42
2022-08-17T01:49:54.903Z,999.42
2022-08-17T01:50:27.734Z,999.42
2022-08-17T01:50:58.825Z,999.32
2022-08-17T01:51:32.327Z,999.32
2022-08-17T01:52:02.909Z,999.42
2022-08-17T01:52:35.287Z,999.22
2022-08-17T01:53:06.806Z,999.22
2022-08-17T01:53:34.032Z,999.32
2022-08-17T01:53:54.965Z,999.32
2022-08-17T01:54:26.956Z,999.32
2022-08-17T01:54:59.548Z,999.32
2022-08-17T01:55:30.948Z,999.32
2022-08-17T01:56:03.728Z,999.42
2022-08-17T01:56:34.450Z,999.32
2022-08-17T01:57:08.480Z,999.32
2022-08-17T01:57:34.144Z,999.32
2022-08-17T01:57:54.818Z,999.32
2022-08-17T01:58:26.940Z,999.32
2022-08-17T01:58:58.925Z,999.42
2022-08-17T01:59:30.797Z,999.42
2022-08-17T02:00:02.957Z,999.12
2022-08-17T02:01:00.225Z,999.22
2022-08-17T02:01:06.316Z,999.22
2022-08-17T02:01:23.488Z,999.22
2022-08-17T02:01:40.645Z,999.22
2022-08-17T02:02:10.813Z,999.22
2022-08-17T02:02:34.098Z,999.22
2022-08-17T02:02:58.798Z,999.22
2022-08-17T02:03:31.556Z,999.22
2022-08-17T02:04:02.958Z,999.22
2022-08-17T02:04:34.170Z,999.32
2022-08-17T02:05:07.725Z,999.32
2022-08-17T02:05:34.067Z,999.32
2022-08-17T02:05:56.827Z,999.32
2022-08-17T02:06:28.446Z,999.32
2022-08-17T02:06:58.811Z,999.12
2022-08-17T02:07:30.843Z,999.12
2022-08-17T02:08:02.922Z,999.32
2022-08-17T02:08:38.824Z,999.32
2022-08-17T02:09:07.461Z,999.32
2022-08-17T02:09:35.037Z,999.22
2022-08-17T02:09:54.827Z,999.22
2022-08-17T02:10:27.062Z,999.22
2022-08-17T02:10:58.925Z,999.22
2022-08-17T02:11:30.870Z,999.22
2022-08-17T02:12:37.251Z,999.22
2022-08-17T02:12:52.164Z,999.12
2022-08-17T02:13:24.570Z,999.12
2022-08-17T02:13:41.637Z,999.22
2022-08-17T02:14:10.839Z,999.22
2022-08-17T02:14:34.061Z,999.12
2022-08-17T02:14:58.846Z,999.12
2022-08-17T02:15:32.149Z,999.12
2022-08-17T02:16:02.887Z,999.12
2022-08-17T02:16:37.431Z,999.02
2022-08-17T02:17:06.820Z,999.02
2022-08-17T02:17:34.061Z,999.12
2022-08-17T02:17:55.019Z,999.12
2022-08-17T02:18:27.554Z,999.12
2022-08-17T02:18:59.899Z,999.02
2022-08-17T02:19:31.674Z,999.02
2022-08-17T02:20:03.068Z,999.12
2022-08-17T02:20:41.237Z,999.12
2022-08-17T02:21:07.487Z,999.12
2022-08-17T02:21:34.125Z,999.12
2022-08-17T02:21:55.786Z,999.12
2022-08-17T02:22:27.907Z,999.12
2022-08-17T02:22:58.880Z,998.92
2022-08-17T02:23:31.564Z,998.92
2022-08-17T02:24:02.797Z,998.81
2022-08-17T02:24:59.441Z,999.02
2022-08-17T02:25:07.020Z,999.02
2022-08-17T02:25:34.090Z,998.81
2022-08-17T02:25:55.804Z,998.81
2022-08-17T02:26:26.872Z,998.81
2022-08-17T02:26:59.745Z,999.12
2022-08-17T02:27:30.926Z,999.12
2022-08-17T02:28:02.825Z,999.02
2022-08-17T02:28:34.630Z,999.02
2022-08-17T02:29:06.901Z,999.02
2022-08-17T02:29:34.045Z,999.22
2022-08-17T02:29:54.861Z,999.22
2022-08-17T02:30:59.029Z,999.22
2022-08-17T02:31:14.839Z,998.92
2022-08-17T02:31:34.151Z,999.12
2022-08-17T02:32:03.833Z,999.12
2022-08-17T02:32:34.170Z,999.12
2022-08-17T02:32:50.836Z,999.12
2022-08-17T02:33:22.848Z,999.12
2022-08-17T02:33:43.149Z,999.02
2022-08-17T02:34:11.517Z,999.02
2022-08-17T02:34:34.061Z,999.12
2022-08-17T02:34:59.019Z,999.12
2022-08-17T02:35:30.973Z,999.12
2022-08-17T02:36:02.784Z,998.92
2022-08-17T02:36:35.087Z,999.12
2022-08-17T02:37:06.919Z,999.12
2022-08-17T02:37:34.675Z,999.02
2022-08-17T02:37:55.670Z,999.02
2022-08-17T02:38:27.639Z,999.02
2022-08-17T02:38:59.989Z,998.92
2022-08-17T02:39:30.910Z,998.92
2022-08-17T02:40:03.001Z,999.02
2022-08-17T02:40:35.979Z,998.61
2022-08-17T02:41:07.563Z,998.61
2022-08-17T02:41:34.109Z,999.02
2022-08-17T02:41:54.818Z,999.02
2022-08-17T02:42:26.789Z,999.02
2022-08-17T02:42:58.851Z,998.92
2022-08-17T02:43:30.928Z,998.92
2022-08-17T02:44:02.970Z,998.92
2022-08-17T02:44:39.507Z,998.71
2022-08-17T02:44:50.554Z,998.71
2022-08-17T02:45:23.818Z,998.71
2022-08-17T02:45:40.857Z,999.02
2022-08-17T02:46:10.889Z,999.02
2022-08-17T02:46:34.110Z,998.92
2022-08-17T02:46:58.784Z,998.92
2022-08-17T02:47:31.565Z,998.92
2022-08-17T02:48:02.893Z,998.81
2022-08-17T02:48:35.107Z,998.81
2022-08-17T02:49:06.805Z,998.81
2022-08-17T02:49:34.176Z,998.81
2022-08-17T02:49:56.124Z,998.81
2022-08-17T02:50:27.079Z,998.81
2022-08-17T02:50:59.566Z,998.92
2022-08-17T02:51:30.825Z,998.92
2022-08-17T02:52:03.589Z,998.81
2022-08-17T02:52:43.792Z,998.71
2022-08-17T02:53:01.602Z,998.71
2022-08-17T02:53:23.466Z,998.71
2022-08-17T02:53:40.647Z,998.92
2022-08-17T02:54:41.827Z,998.92
2022-08-17T02:54:59.761Z,998.92
2022-08-17T02:55:32.195Z,998.92
2022-08-17T02:56:03.951Z,998.92
2022-08-17T02:56:35.754Z,999.02
2022-08-17T02:57:06.828Z,999.02
2022-08-17T02:57:34.041Z,999.02
2022-08-17T02:57:54.870Z,999.02
2022-08-17T02:58:34.698Z,999.02
2022-08-17T02:58:59.565Z,998.81
2022-08-17T02:59:30.796Z,998.81
2022-08-17T03:00:03.770Z,998.92
2022-08-17T03:00:34.132Z,999.02
2022-08-17T03:00:50.693Z,999.02
2022-08-17T03:01:22.885Z,999.02
2022-08-17T03:01:39.968Z,999.12
2022-08-17T03:02:11.548Z,999.12
2022-08-17T03:02:34.070Z,998.92
2022-08-17T03:02:58.816Z,998.92
2022-08-17T03:03:31.690Z,998.92
2022-08-17T03:04:02.834Z,998.81
2022-08-17T03:04:35.402Z,998.92
2022-08-17T03:04:53.437Z,998.92
2022-08-17T03:05:23.796Z,998.92
2022-08-17T03:05:40.817Z,998.81
2022-08-17T03:06:10.788Z,998.81
2022-08-17T03:06:34.203Z,999.02
2022-08-17T03:06:58.879Z,999.02
2022-08-17T03:07:32.443Z,999.02
2022-08-17T03:08:02.758Z,998.92
2022-08-17T03:08:34.944Z,998.81
2022-08-17T03:09:06.859Z,998.81
2022-08-17T03:09:35.200Z,998.92
2022-08-17T03:09:55.150Z,998.92
2022-08-17T03:10:26.923Z,998.92
2022-08-17T03:11:00.481Z,998.81
2022-08-17T03:11:30.891Z,998.81
2022-08-17T03:12:03.474Z,998.71
2022-08-17T03:12:35.376Z,998.92
2022-08-17T03:13:07.592Z,998.92
2022-08-17T03:13:34.108Z,999.02
2022-08-17T03:13:56.765Z,999.02
2022-08-17T03:14:26.759Z,999.02
2022-08-17T03:14:58.835Z,998.92
2022-08-17T03:15:30.971Z,998.92
2022-08-17T03:16:02.930Z,999.02
2022-08-17T03:16:34.118Z,998.81
2022-08-17T03:16:50.547Z,998.81
2022-08-17T03:17:24.468Z,998.81
2022-08-17T03:17:42.081Z,998.71
2022-08-17T03:18:18.979Z,998.71
2022-08-17T03:18:34.186Z,998.81
2022-08-17T03:18:58.848Z,998.81
2022-08-17T03:19:30.812Z,998.81
2022-08-17T03:20:02.869Z,998.92
2022-08-17T03:20:34.666Z,998.92
2022-08-17T03:21:06.886Z,998.92
2022-08-17T03:21:34.082Z,998.92
2022-08-17T03:21:55.164Z,998.92
2022-08-17T03:22:36.409Z,998.92
2022-08-17T03:23:02.996Z,998.92
2022-08-17T03:23:31.630Z,998.92
2022-08-17T03:24:06.910Z,998.92
2022-08-17T03:24:34.258Z,998.92
2022-08-17T03:24:51.496Z,998.92
2022-08-17T03:25:23.018Z,998.92
2022-08-17T03:25:39.993Z,998.81
2022-08-17T03:26:13.494Z,998.81
2022-08-17T03:26:36.152Z,998.71
2022-08-17T03:26:59.512Z,998.71
2022-08-17T03:27:30.842Z,998.71
2022-08-17T03:28:02.872Z,998.92
2022-08-17T03:28:34.192Z,998.92
2022-08-17T03:29:06.398Z,998.92
2022-08-17T03:29:24.536Z,998.92
2022-08-17T03:29:42.164Z,999.02
2022-08-17T03:30:11.009Z,999.02
2022-08-17T03:30:34.999Z,999.02
2022-08-17T03:30:58.911Z,999.02
2022-08-17T03:31:31.661Z,999.02
2022-08-17T03:32:03.833Z,998.92
2022-08-17T03:32:34.144Z,998.71
2022-08-17T03:32:51.496Z,998.71
2022-08-17T03:33:22.868Z,998.71
2022-08-17T03:33:40.969Z,998.92
2022-08-17T03:34:11.595Z,998.92
2022-08-17T03:34:34.204Z,998.92
2022-08-17T03:34:58.877Z,998.92
2022-08-17T03:35:30.895Z,998.92
2022-08-17T03:36:02.767Z,998.92
2022-08-17T03:36:35.911Z,998.71
2022-08-17T03:37:06.897Z,998.71
2022-08-17T03:37:34.118Z,998.92
2022-08-17T03:38:00.109Z,998.92
2022-08-17T03:38:27.588Z,998.92
2022-08-17T03:38:59.810Z,998.71
2022-08-17T03:39:30.879Z,998.71
2022-08-17T03:40:03.096Z,998.81
2022-08-17T03:40:56.819Z,998.81
2022-08-17T03:41:06.803Z,998.81
2022-08-17T03:41:34.083Z,998.81
2022-08-17T03:41:55.531Z,998.81
2022-08-17T03:42:32.247Z,998.81
2022-08-17T03:42:58.751Z,998.71
2022-08-17T03:43:30.969Z,998.71
2022-08-17T03:44:02.857Z,998.81
2022-08-17T03:44:34.166Z,998.92
2022-08-17T03:44:50.587Z,998.92
2022-08-17T03:45:23.675Z,998.92
2022-08-17T03:45:40.714Z,998.92
2022-08-17T03:46:28.777Z,998.92
2022-08-17T03:46:42.906Z,999.12
2022-08-17T03:47:14.775Z,999.12
2022-08-17T03:47:34.100Z,999.02
2022-08-17T03:48:03.542Z,999.02
2022-08-17T03:48:34.112Z,998.81
2022-08-17T03:48:50.613Z,998.81
2022-08-17T03:49:23.482Z,998.81
2022-08-17T03:49:40.556Z,998.92
2022-08-17T03:50:10.898Z,998.92
2022-08-17T03:50:34.197Z,999.12
2022-08-17T03:50:59.850Z,999.12
2022-08-17T03:51:33.538Z,999.12
2022-08-17T03:52:02.738Z,999.02
2022-08-17T03:52:35.554Z,998.61
2022-08-17T03:53:06.822Z,998.61
2022-08-17T03:53:35.737Z,999.02
2022-08-17T03:53:55.503Z,999.02
2022-08-17T03:54:26.772Z,999.02
2022-08-17T03:54:58.773Z,998.81
2022-08-17T03:55:36.304Z,998.81
2022-08-17T03:56:02.841Z,999.02
2022-08-17T03:56:34.175Z,998.81
2022-08-17T03:56:50.554Z,998.81
2022-08-17T03:57:23.604Z,998.81
2022-08-17T03:57:40.791Z,999.02
2022-08-17T03:58:10.822Z,999.02
2022-08-17T03:58:35.968Z,998.92
2022-08-17T03:58:58.832Z,998.92
2022-08-17T03:59:30.739Z,998.92
2022-08-17T04:00:03.074Z,999.12
2022-08-17T04:00:34.499Z,999.22
2022-08-17T04:01:08.776Z,999.22
2022-08-17T04:01:34.212Z,999.02
2022-08-17T04:01:55.729Z,999.02
2022-08-17T04:02:27.619Z,999.02
2022-08-17T04:02:58.887Z,999.12
2022-08-17T04:03:31.628Z,999.12
2022-08-17T04:04:02.782Z,999.22
2022-08-17T04:04:35.114Z,999.02
2022-08-17T04:05:07.915Z,999.02
2022-08-17T04:05:34.519Z,999.12
2022-08-17T04:05:56.459Z,999.12
2022-08-17T04:06:26.718Z,999.12
2022-08-17T04:06:59.636Z,999.02
2022-08-17T04:07:30.870Z,999.02
2022-08-17T04:08:02.811Z,999.02
2022-08-17T04:08:35.331Z,999.12
2022-08-17T04:09:06.748Z,999.12
2022-08-17T04:09:35.674Z,999.12
2022-08-17T04:09:54.831Z,999.12
2022-08-17T04:10:27.617Z,999.12
2022-08-17T04:10:58.739Z,999.22
2022-08-17T04:11:32.361Z,999.22
2022-08-17T04:12:05.041Z,999.32
2022-08-17T04:12:36.392Z,999.52
2022-08-17T04:13:06.765Z,999.52
2022-08-17T04:13:34.333Z,999.52
2022-08-17T04:13:56.246Z,999.52
2022-08-17T04:14:26.857Z,999.52
2022-08-17T04:14:59.579Z,999.42
2022-08-17T04:15:31.912Z,999.42
2022-08-17T04:16:02.797Z,999.63
2022-08-17T04:16:34.108Z,999.52
2022-08-17T04:16:50.579Z,999.52
2022-08-17T04:17:23.543Z,999.52
2022-08-17T04:17:40.698Z,999.32
2022-08-17T04:18:11.039Z,999.32
2022-08-17T04:18:34.196Z,999.52
2022-08-17T04:18:59.054Z,999.52
2022-08-17T04:19:31.629Z,999.52
2022-08-17T04:20:04.025Z,999.63
2022-08-17T04:20:34.113Z,999.63
2022-08-17T04:20:51.707Z,999.63
2022-08-17T04:21:23.499Z,999.63
2022-08-17T04:21:40.602Z,999.42
2022-08-17T04:22:10.823Z,999.42
2022-08-17T04:22:34.468Z,999.73
2022-08-17T04:22:58.863Z,999.73
2022-08-17T04:23:31.416Z,999.73
2022-08-17T04:24:02.757Z,999.63
2022-08-17T04:24:35.958Z,999.93
2022-08-17T04:25:07.003Z,999.93
2022-08-17T04:25:35.965Z,999.73
2022-08-17T04:25:54.916Z,999.73
2022-08-17T04:26:52.163Z,999.73
2022-08-17T04:26:59.635Z,999.52
2022-08-17T04:27:30.891Z,999.52
2022-08-17T04:28:04.519Z,1000.03
2022-08-17T04:28:34.860Z,999.63
2022-08-17T04:29:07.644Z,999.63
2022-08-17T04:29:55.041Z,999.52
2022-08-17T04:30:12.644Z,999.52
2022-08-17T04:30:35.708Z,999.83
2022-08-17T04:30:59.061Z,999.83
2022-08-17T04:31:30.793Z,999.83
2022-08-17T04:32:02.850Z,999.63
2022-08-17T04:33:03.665Z,999.93
2022-08-17T04:33:08.694Z,999.93
2022-08-17T04:33:34.204Z,999.83
2022-08-17T04:33:54.986Z,999.83
2022-08-17T04:34:28.715Z,999.83
2022-08-17T04:34:58.836Z,999.52
2022-08-17T04:35:30.981Z,999.52
2022-08-17T04:36:02.870Z,999.63
2022-08-17T04:36:34.346Z,999.93
2022-08-17T04:36:51.453Z,999.93
2022-08-17T04:37:22.918Z,999.93
2022-08-17T04:37:39.983Z,999.83
2022-08-17T04:38:11.610Z,999.83
2022-08-17T04:38:34.184Z,999.73
2022-08-17T04:38:59.625Z,999.73
2022-08-17T04:39:33.753Z,999.73
2022-08-17T04:40:04.427Z,999.73
2022-08-17T04:40:34.272Z,999.83
2022-08-17T04:40:50.828Z,999.83
2022-08-17T04:41:24.363Z,999.83
2022-08-17T04:41:43.256Z,999.83
2022-08-17T04:42:11.660Z,999.83
2022-08-17T04:42:34.949Z,999.73
2022-08-17T04:43:00.161Z,999.73
2022-08-17T04:43:30.942Z,999.73
2022-08-17T04:44:03.510Z,999.63
2022-08-17T04:44:37.510Z,999.83
2022-08-17T04:44:50.678Z,999.83
2022-08-17T04:45:25.063Z,999.83
2022-08-17T04:45:55.212Z,999.93
2022-08-17T04:46:13.427Z,999.93
2022-08-17T04:46:34.196Z,999.52
2022-08-17T04:46:59.740Z,999.52
2022-08-17T04:47:31.787Z,999.52
2022-08-17T04:48:04.016Z,999.63
2022-08-17T04:48:36.605Z,999.83
2022-08-17T04:48:50.676Z,999.83
2022-08-17T04:49:23.350Z,999.83
2022-08-17T04:49:40.391Z,999.73
2022-08-17T04:50:11.167Z,999.73
2022-08-17T04:50:34.192Z,999.83
2022-08-17T04:50:58.959Z,999.83
2022-08-17T04:51:31.384Z,999.83
2022-08-17T04:52:04.725Z,999.73
2022-08-17T04:52:43.532Z,999.73
2022-08-17T04:53:06.811Z,999.73
2022-08-17T04:53:34.315Z,999.93
2022-08-17T04:53:55.181Z,999.93
2022-08-17T04:54:26.892Z,999.93
2022-08-17T04:54:59.519Z,1000.03
2022-08-17T04:55:30.911Z,1000.03
2022-08-17T04:56:03.428Z,1000.03
2022-08-17T04:56:35.757Z,1000.03
2022-08-17T04:57:09.802Z,1000.03
2022-08-17T04:57:39.471Z,999.93
2022-08-17T04:57:54.942Z,999.93
2022-08-17T04:58:26.944Z,999.93
2022-08-17T04:58:58.838Z,999.83
2022-08-17T04:59:30.830Z,999.83
2022-08-17T05:00:03.319Z,1000.03
2022-08-17T05:00:35.230Z,999.93
2022-08-17T05:01:06.959Z,999.93
2022-08-17T05:01:34.245Z,999.83
2022-08-17T05:01:55.649Z,999.83
2022-08-17T05:02:28.587Z,999.83
2022-08-17T05:02:58.771Z,999.83
2022-08-17T05:03:31.552Z,999.83
2022-08-17T05:04:33.506Z,999.93
2022-08-17T05:04:51.910Z,999.93
2022-08-17T05:05:23.696Z,999.93
2022-08-17T05:05:41.384Z,1000.03
2022-08-17T05:06:10.820Z,1000.03
2022-08-17T05:06:35.848Z,999.93
2022-08-17T05:06:58.928Z,999.93
2022-08-17T05:07:31.738Z,999.93
2022-08-17T05:08:03.697Z,999.93
2022-08-17T05:08:34.221Z,999.83
2022-08-17T05:08:50.748Z,999.83
2022-08-17T05:09:22.856Z,999.83
2022-08-17T05:09:39.941Z,999.83
2022-08-17T05:10:11.915Z,999.83
2022-08-17T05:10:34.279Z,999.73
2022-08-17T05:10:58.984Z,999.73
2022-08-17T05:11:30.903Z,999.73
2022-08-17T05:12:02.778Z,999.83
2022-08-17T05:12:36.280Z,999.93
2022-08-17T05:13:06.826Z,999.93
2022-08-17T05:13:34.224Z,1000.03
2022-08-17T05:13:55.590Z,1000.03
2022-08-17T05:14:33.789Z,1000.03
2022-08-17T05:14:58.773Z,999.83
2022-08-17T05:15:33.175Z,999.83
2022-08-17T05:16:03.671Z,999.83
2022-08-17T05:16:34.743Z,999.93
2022-08-17T05:17:09.584Z,999.93
2022-08-17T05:17:35.995Z,999.93
2022-08-17T05:17:54.853Z,999.93
2022-08-17T05:18:26.802Z,999.93
2022-08-17T05:18:59.799Z,1000.03
2022-08-17T05:19:30.871Z,1000.03
2022-08-17T05:20:03.874Z,1000.24
2022-08-17T05:20:34.244Z,1000.03
2022-08-17T05:20:51.533Z,1000.03
2022-08-17T05:21:22.775Z,1000.03
2022-08-17T05:21:42.826Z,1000.03
2022-08-17T05:22:26.869Z,1000.03
2022-08-17T05:22:59.629Z,1000.13
2022-08-17T05:23:41.886Z,1000.13
2022-08-17T05:24:04.469Z,1000.03
2022-08-17T05:24:42.698Z,999.93
2022-08-17T05:24:53.965Z,999.93
2022-08-17T05:25:25.746Z,999.93
2022-08-17T05:25:47.431Z,1000.13
2022-08-17T05:26:25.694Z,1000.13
2022-08-17T05:26:34.307Z,1000.03
2022-08-17T05:27:06.468Z,1000.03
2022-08-17T05:27:35.449Z,1000.03
2022-08-17T05:28:02.802Z,999.93
2022-08-17T05:28:35.899Z,999.93
2022-08-17T05:29:06.769Z,999.93
2022-08-17T05:29:35.428Z,999.83
2022-08-17T05:29:54.746Z,999.83
2022-08-17T05:30:27.096Z,999.83
2022-08-17T05:30:59.357Z,999.83
2022-08-17T05:31:30.797Z,999.83
2022-08-17T05:32:03.415Z,999.83
2022-08-17T05:32:50.869Z,999.83
2022-08-17T05:33:22.767Z,999.83
2022-08-17T05:33:46.228Z,999.93
2022-08-17T05:34:12.928Z,999.93
2022-08-17T05:34:34.257Z,1000.24
2022-08-17T05:34:59.695Z,1000.24
2022-08-17T05:35:30.900Z,1000.24
2022-08-17T05:36:02.776Z,1000.13
2022-08-17T05:36:43.580Z,999.83
2022-08-17T05:36:50.761Z,999.83
2022-08-17T05:37:24.401Z,999.83
2022-08-17T05:37:41.522Z,999.73
2022-08-17T05:38:10.769Z,999.73
2022-08-17T05:38:36.283Z,999.93
2022-08-17T05:38:58.913Z,999.93
2022-08-17T05:39:31.337Z,999.93
2022-08-17T05:40:03.166Z,999.93
2022-08-17T05:40:36.293Z,1000.13
2022-08-17T05:41:08.989Z,1000.13
2022-08-17T05:41:34.135Z,1000.03
2022-08-17T05:41:54.804Z,1000.03
2022-08-17T05:42:26.793Z,1000.03
2022-08-17T05:42:59.259Z,999.83
2022-08-17T05:43:30.886Z,999.83
2022-08-17T05:44:05.300Z,999.83
2022-08-17T05:44:34.246Z,999.93
2022-08-17T05:44:50.724Z,999.93
2022-08-17T05:45:54.365Z,999.93
2022-08-17T05:46:11.364Z,999.93
2022-08-17T05:46:34.194Z,1000.03
2022-08-17T05:46:58.859Z,1000.03
2022-08-17T05:47:32.941Z,1000.03
2022-08-17T05:48:03.298Z,999.93
2022-08-17T05:48:39.100Z,999.73
2022-08-17T05:48:50.749Z,999.73
2022-08-17T05:49:23.451Z,999.73
2022-08-17T05:49:43.431Z,1000.03
2022-08-17T05:50:10.899Z,1000.03
2022-08-17T05:50:35.063Z,999.93
2022-08-17T05:50:58.923Z,999.93
2022-08-17T05:51:34.937Z,999.83
2022-08-17T05:52:03.643Z,999.83
2022-08-17T05:52:34.411Z,999.73
2022-08-17T05:52:52.451Z,999.73
2022-08-17T05:53:22.802Z,999.73
2022-08-17T05:53:41.600Z,999.73
2022-08-17T05:54:10.768Z,999.73
2022-08-17T05:54:34.203Z,999.83
2022-08-17T05:54:58.775Z,999.83
2022-08-17T05:55:30.934Z,999.83
2022-08-17T05:56:02.854Z,999.93
2022-08-17T05:56:35.415Z,1000.03